sensor_id;sensor_type;location;lat;lon;timestamp;temperature;humidity
20815;DHT22;10568;48.176;16.316;2023-08-21T00:01:25;22.40;99.90
20815;DHT22;10568;48.176;16.316;2023-08-21T00:03:51;22.30;99.90
20815;DHT22;10568;48.176;16.316;2023-08-21T00:06:17;22.30;99.90
20815;DHT22;10568;48.176;16.316;2023-08-21T00:08:43;22.20;99.90
20815;DHT22;10568;48.176;16.316;2023-08-21T00:11:09;22.20;99.90
20815;DHT22;10568;48.176;16.316;2023-08-21T00:13:35;22.20;99.90
20815;DHT22;10568;48.176;16.316;2023-08-21T00:16:01;22.10;99.90
20815;DHT22;10568;48.176;16.316;2023-08-21T00:18:26;22.10;99.90
20815;DHT22;10568;48.176;16.316;2023-08-21T00:20:52;22.00;99.90
20815;DHT22;10568;48.176;16.316;2023-08-21T00:23:18;21.90;99.90
20815;DHT22;10568;48.176;16.316;2023-08-21T00:25:47;22.00;99.90
20815;DHT22;10568;48.176;16.316;2023-08-21T00:28:13;21.90;99.90
20815;DHT22;10568;48.176;16.316;2023-08-21T00:30:39;21.90;99.90
20815;DHT22;10568;48.176;16.316;2023-08-21T00:33:05;21.80;99.90
20815;DHT22;10568;48.176;16.316;2023-08-21T00:35:31;21.80;99.90
20815;DHT22;10568;48.176;16.316;2023-08-21T00:37:56;21.70;99.90
20815;DHT22;10568;48.176;16.316;2023-08-21T00:40:22;21.70;99.90
20815;DHT22;10568;48.176;16.316;2023-08-21T00:42:48;21.70;99.90
20815;DHT22;10568;48.176;16.316;2023-08-21T00:45:14;21.70;99.90
20815;DHT22;10568;48.176;16.316;2023-08-21T00:47:40;21.60;99.90
20815;DHT22;10568;48.176;16.316;2023-08-21T00:50:07;21.60;99.90
20815;DHT22;10568;48.176;16.316;2023-08-21T00:52:34;21.40;99.90
20815;DHT22;10568;48.176;16.316;2023-08-21T00:55:00;21.50;99.90
20815;DHT22;10568;48.176;16.316;2023-08-21T00:57:28;21.40;99.90
20815;DHT22;10568;48.176;16.316;2023-08-21T00:59:54;21.40;99.90
20815;DHT22;10568;48.176;16.316;2023-08-21T01:02:19;21.40;99.90
20815;DHT22;10568;48.176;16.316;2023-08-21T01:04:45;21.40;99.90
20815;DHT22;10568;48.176;16.316;2023-08-21T01:07:11;21.30;99.90
20815;DHT22;10568;48.176;16.316;2023-08-21T01:15:43;21.30;99.90
20815;DHT22;10568;48.176;16.316;2023-08-21T01:18:10;21.20;99.90
20815;DHT22;10568;48.176;16.316;2023-08-21T01:20:36;21.30;99.90
20815;DHT22;10568;48.176;16.316;2023-08-21T01:23:05;21.30;99.90
20815;DHT22;10568;48.176;16.316;2023-08-21T01:25:32;21.30;99.90
20815;DHT22;10568;48.176;16.316;2023-08-21T01:27:58;21.30;99.90
20815;DHT22;10568;48.176;16.316;2023-08-21T01:30:25;21.30;99.90
20815;DHT22;10568;48.176;16.316;2023-08-21T01:33:06;21.30;99.90
20815;DHT22;10568;48.176;16.316;2023-08-21T01:35:35;21.30;99.90
20815;DHT22;10568;48.176;16.316;2023-08-21T01:38:02;21.30;99.90
20815;DHT22;10568;48.176;16.316;2023-08-21T01:40:28;21.30;99.90
20815;DHT22;10568;48.176;16.316;2023-08-21T01:42:54;21.20;99.90
20815;DHT22;10568;48.176;16.316;2023-08-21T01:45:20;21.30;99.90
20815;DHT22;10568;48.176;16.316;2023-08-21T01:47:46;21.20;99.90
20815;DHT22;10568;48.176;16.316;2023-08-21T01:50:12;21.20;99.90
20815;DHT22;10568;48.176;16.316;2023-08-21T01:52:38;21.20;99.90
20815;DHT22;10568;48.176;16.316;2023-08-21T01:55:04;21.20;99.90
20815;DHT22;10568;48.176;16.316;2023-08-21T01:57:31;21.30;99.90
20815;DHT22;10568;48.176;16.316;2023-08-21T01:59:57;21.30;99.90
20815;DHT22;10568;48.176;16.316;2023-08-21T02:02:23;21.20;99.90
20815;DHT22;10568;48.176;16.316;2023-08-21T02:04:49;21.20;99.90
20815;DHT22;10568;48.176;16.316;2023-08-21T02:07:15;21.20;99.90
20815;DHT22;10568;48.176;16.316;2023-08-21T02:09:40;21.20;99.90
20815;DHT22;10568;48.176;16.316;2023-08-21T02:12:06;21.20;99.90
20815;DHT22;10568;48.176;16.316;2023-08-21T02:14:32;21.10;99.90
20815;DHT22;10568;48.176;16.316;2023-08-21T02:16:58;21.10;99.90
20815;DHT22;10568;48.176;16.316;2023-08-21T02:19:23;21.10;99.90
20815;DHT22;10568;48.176;16.316;2023-08-21T02:21:49;21.00;99.90
20815;DHT22;10568;48.176;16.316;2023-08-21T02:24:15;21.00;99.90
20815;DHT22;10568;48.176;16.316;2023-08-21T02:26:40;20.90;99.90
20815;DHT22;10568;48.176;16.316;2023-08-21T02:29:08;20.90;99.90
20815;DHT22;10568;48.176;16.316;2023-08-21T02:31:34;20.90;99.90
20815;DHT22;10568;48.176;16.316;2023-08-21T02:34:00;20.80;99.90
20815;DHT22;10568;48.176;16.316;2023-08-21T02:36:26;20.80;99.90
20815;DHT22;10568;48.176;16.316;2023-08-21T02:38:51;20.70;99.90
20815;DHT22;10568;48.176;16.316;2023-08-21T02:41:17;20.60;99.90
20815;DHT22;10568;48.176;16.316;2023-08-21T02:43:44;20.60;99.90
20815;DHT22;10568;48.176;16.316;2023-08-21T02:46:09;20.50;99.90
20815;DHT22;10568;48.176;16.316;2023-08-21T02:48:35;20.50;99.90
20815;DHT22;10568;48.176;16.316;2023-08-21T02:51:01;20.50;99.90
20815;DHT22;10568;48.176;16.316;2023-08-21T02:53:28;20.50;99.90
20815;DHT22;10568;48.176;16.316;2023-08-21T02:55:54;20.50;99.90
20815;DHT22;10568;48.176;16.316;2023-08-21T02:58:19;20.60;99.90
20815;DHT22;10568;48.176;16.316;2023-08-21T03:00:45;20.60;99.90
20815;DHT22;10568;48.176;16.316;2023-08-21T03:03:11;20.60;99.90
20815;DHT22;10568;48.176;16.316;2023-08-21T03:05:37;20.60;99.90
20815;DHT22;10568;48.176;16.316;2023-08-21T03:08:03;20.70;99.90
20815;DHT22;10568;48.176;16.316;2023-08-21T03:10:28;20.70;99.90
20815;DHT22;10568;48.176;16.316;2023-08-21T03:12:59;20.70;99.90
20815;DHT22;10568;48.176;16.316;2023-08-21T03:15:25;20.70;99.90
20815;DHT22;10568;48.176;16.316;2023-08-21T03:17:51;20.70;99.90
20815;DHT22;10568;48.176;16.316;2023-08-21T03:20:17;20.70;99.90
20815;DHT22;10568;48.176;16.316;2023-08-21T03:22:45;20.70;99.90
20815;DHT22;10568;48.176;16.316;2023-08-21T03:25:11;20.70;99.90
20815;DHT22;10568;48.176;16.316;2023-08-21T03:27:37;20.70;99.90
20815;DHT22;10568;48.176;16.316;2023-08-21T03:30:08;20.60;99.90
20815;DHT22;10568;48.176;16.316;2023-08-21T03:32:34;20.60;99.90
20815;DHT22;10568;48.176;16.316;2023-08-21T03:35:00;20.70;99.90
20815;DHT22;10568;48.176;16.316;2023-08-21T03:37:26;20.60;99.90
20815;DHT22;10568;48.176;16.316;2023-08-21T03:39:51;20.60;99.90
20815;DHT22;10568;48.176;16.316;2023-08-21T03:42:17;20.60;99.90
20815;DHT22;10568;48.176;16.316;2023-08-21T03:44:43;20.60;99.90
20815;DHT22;10568;48.176;16.316;2023-08-21T03:47:09;20.60;99.90
20815;DHT22;10568;48.176;16.316;2023-08-21T03:49:36;20.60;99.90
20815;DHT22;10568;48.176;16.316;2023-08-21T03:52:02;20.60;99.90
20815;DHT22;10568;48.176;16.316;2023-08-21T03:54:27;20.50;99.90
20815;DHT22;10568;48.176;16.316;2023-08-21T03:56:53;20.50;99.90
20815;DHT22;10568;48.176;16.316;2023-08-21T03:59:19;20.50;99.90
20815;DHT22;10568;48.176;16.316;2023-08-21T04:01:44;20.50;99.90
20815;DHT22;10568;48.176;16.316;2023-08-21T04:04:10;20.50;99.90
20815;DHT22;10568;48.176;16.316;2023-08-21T04:06:36;20.50;99.90
20815;DHT22;10568;48.176;16.316;2023-08-21T04:09:02;20.40;99.90
20815;DHT22;10568;48.176;16.316;2023-08-21T04:11:50;20.40;99.90
20815;DHT22;10568;48.176;16.316;2023-08-21T04:14:15;20.40;99.90
20815;DHT22;10568;48.176;16.316;2023-08-21T04:16:41;20.40;99.90
20815;DHT22;10568;48.176;16.316;2023-08-21T04:19:07;20.40;99.90
20815;DHT22;10568;48.176;16.316;2023-08-21T04:21:33;20.40;99.90
20815;DHT22;10568;48.176;16.316;2023-08-21T04:23:59;20.40;99.90
20815;DHT22;10568;48.176;16.316;2023-08-21T04:26:25;20.50;99.90
20815;DHT22;10568;48.176;16.316;2023-08-21T04:28:51;20.50;99.90
20815;DHT22;10568;48.176;16.316;2023-08-21T04:31:17;20.50;99.90
20815;DHT22;10568;48.176;16.316;2023-08-21T04:33:42;20.50;99.90
20815;DHT22;10568;48.176;16.316;2023-08-21T04:36:14;20.60;99.90
20815;DHT22;10568;48.176;16.316;2023-08-21T04:38:40;20.50;99.90
20815;DHT22;10568;48.176;16.316;2023-08-21T04:41:07;20.60;99.90
20815;DHT22;10568;48.176;16.316;2023-08-21T04:43:33;20.50;99.90
20815;DHT22;10568;48.176;16.316;2023-08-21T04:45:59;20.60;99.90
20815;DHT22;10568;48.176;16.316;2023-08-21T04:48:25;20.60;99.90
20815;DHT22;10568;48.176;16.316;2023-08-21T04:50:51;20.60;99.90
20815;DHT22;10568;48.176;16.316;2023-08-21T04:53:17;20.70;99.90
20815;DHT22;10568;48.176;16.316;2023-08-21T04:55:43;20.70;99.90
20815;DHT22;10568;48.176;16.316;2023-08-21T04:58:09;20.70;99.90
20815;DHT22;10568;48.176;16.316;2023-08-21T05:00:35;20.70;99.90
20815;DHT22;10568;48.176;16.316;2023-08-21T05:03:01;20.70;99.90
20815;DHT22;10568;48.176;16.316;2023-08-21T05:05:27;20.70;99.90
20815;DHT22;10568;48.176;16.316;2023-08-21T05:07:54;20.80;99.90
20815;DHT22;10568;48.176;16.316;2023-08-21T05:10:19;20.80;99.90
20815;DHT22;10568;48.176;16.316;2023-08-21T05:12:46;20.90;99.90
20815;DHT22;10568;48.176;16.316;2023-08-21T05:15:12;20.90;99.90
20815;DHT22;10568;48.176;16.316;2023-08-21T05:17:37;20.90;99.90
20815;DHT22;10568;48.176;16.316;2023-08-21T05:20:04;20.90;99.90
20815;DHT22;10568;48.176;16.316;2023-08-21T05:22:30;21.00;99.90
20815;DHT22;10568;48.176;16.316;2023-08-21T05:24:56;21.00;99.90
20815;DHT22;10568;48.176;16.316;2023-08-21T05:27:22;21.00;99.90
20815;DHT22;10568;48.176;16.316;2023-08-21T05:29:48;21.10;99.90
20815;DHT22;10568;48.176;16.316;2023-08-21T05:32:16;21.10;99.90
20815;DHT22;10568;48.176;16.316;2023-08-21T05:34:42;21.10;99.90
20815;DHT22;10568;48.176;16.316;2023-08-21T05:37:08;21.20;99.90
20815;DHT22;10568;48.176;16.316;2023-08-21T05:39:34;21.40;99.90
20815;DHT22;10568;48.176;16.316;2023-08-21T05:42:00;21.40;99.90
20815;DHT22;10568;48.176;16.316;2023-08-21T05:44:26;21.40;99.90
20815;DHT22;10568;48.176;16.316;2023-08-21T05:46:51;21.50;99.90
20815;DHT22;10568;48.176;16.316;2023-08-21T05:49:17;21.60;99.90
20815;DHT22;10568;48.176;16.316;2023-08-21T05:51:43;21.70;99.90
20815;DHT22;10568;48.176;16.316;2023-08-21T05:54:08;21.80;99.90
20815;DHT22;10568;48.176;16.316;2023-08-21T05:56:34;21.80;99.90
20815;DHT22;10568;48.176;16.316;2023-08-21T05:59:00;21.90;99.90
20815;DHT22;10568;48.176;16.316;2023-08-21T06:01:26;21.90;99.90
20815;DHT22;10568;48.176;16.316;2023-08-21T06:03:51;21.90;99.90
20815;DHT22;10568;48.176;16.316;2023-08-21T06:06:17;22.00;99.90
20815;DHT22;10568;48.176;16.316;2023-08-21T06:08:43;22.00;99.90
20815;DHT22;10568;48.176;16.316;2023-08-21T06:11:09;22.10;99.90
20815;DHT22;10568;48.176;16.316;2023-08-21T06:13:35;22.00;99.90
20815;DHT22;10568;48.176;16.316;2023-08-21T06:16:00;22.10;99.90
20815;DHT22;10568;48.176;16.316;2023-08-21T06:18:26;22.10;99.90
20815;DHT22;10568;48.176;16.316;2023-08-21T06:20:52;22.20;99.90
20815;DHT22;10568;48.176;16.316;2023-08-21T06:23:21;22.20;99.90
20815;DHT22;10568;48.176;16.316;2023-08-21T06:25:50;22.30;99.90
20815;DHT22;10568;48.176;16.316;2023-08-21T06:28:16;22.40;99.90
20815;DHT22;10568;48.176;16.316;2023-08-21T06:30:42;22.50;99.90
20815;DHT22;10568;48.176;16.316;2023-08-21T06:33:08;22.50;99.90
20815;DHT22;10568;48.176;16.316;2023-08-21T06:35:36;22.60;99.90
20815;DHT22;10568;48.176;16.316;2023-08-21T06:38:03;22.70;99.90
20815;DHT22;10568;48.176;16.316;2023-08-21T06:40:46;22.80;99.90
20815;DHT22;10568;48.176;16.316;2023-08-21T06:43:12;22.90;99.90
20815;DHT22;10568;48.176;16.316;2023-08-21T06:45:38;22.90;99.90
20815;DHT22;10568;48.176;16.316;2023-08-21T06:48:04;22.90;99.90
20815;DHT22;10568;48.176;16.316;2023-08-21T06:50:30;23.10;99.90
20815;DHT22;10568;48.176;16.316;2023-08-21T06:52:56;23.20;99.90
20815;DHT22;10568;48.176;16.316;2023-08-21T06:55:22;23.20;99.90
20815;DHT22;10568;48.176;16.316;2023-08-21T06:57:47;23.20;99.90
20815;DHT22;10568;48.176;16.316;2023-08-21T07:00:18;23.30;99.90
20815;DHT22;10568;48.176;16.316;2023-08-21T07:02:44;23.40;99.90
20815;DHT22;10568;48.176;16.316;2023-08-21T07:05:10;23.50;99.90
20815;DHT22;10568;48.176;16.316;2023-08-21T07:07:36;23.70;99.90
20815;DHT22;10568;48.176;16.316;2023-08-21T07:10:02;24.00;99.90
20815;DHT22;10568;48.176;16.316;2023-08-21T07:12:28;24.40;99.90
20815;DHT22;10568;48.176;16.316;2023-08-21T07:14:54;24.60;99.90
20815;DHT22;10568;48.176;16.316;2023-08-21T07:17:20;25.00;99.90
20815;DHT22;10568;48.176;16.316;2023-08-21T07:19:46;25.20;99.90
20815;DHT22;10568;48.176;16.316;2023-08-21T07:22:12;25.50;99.90
20815;DHT22;10568;48.176;16.316;2023-08-21T07:24:38;25.80;99.90
20815;DHT22;10568;48.176;16.316;2023-08-21T07:27:03;26.20;99.90
20815;DHT22;10568;48.176;16.316;2023-08-21T07:29:29;26.40;99.90
20815;DHT22;10568;48.176;16.316;2023-08-21T07:31:55;26.70;99.90
20815;DHT22;10568;48.176;16.316;2023-08-21T07:34:21;27.00;99.90
20815;DHT22;10568;48.176;16.316;2023-08-21T07:36:47;27.20;99.90
20815;DHT22;10568;48.176;16.316;2023-08-21T07:39:13;27.40;99.90
20815;DHT22;10568;48.176;16.316;2023-08-21T07:41:39;27.60;99.90
20815;DHT22;10568;48.176;16.316;2023-08-21T07:44:05;27.90;99.90
20815;DHT22;10568;48.176;16.316;2023-08-21T07:46:31;28.10;99.90
20815;DHT22;10568;48.176;16.316;2023-08-21T07:48:56;28.30;99.90
20815;DHT22;10568;48.176;16.316;2023-08-21T07:51:22;28.30;99.90
20815;DHT22;10568;48.176;16.316;2023-08-21T07:53:48;28.30;99.90
20815;DHT22;10568;48.176;16.316;2023-08-21T07:56:14;28.40;99.90
20815;DHT22;10568;48.176;16.316;2023-08-21T07:58:40;28.50;99.90
20815;DHT22;10568;48.176;16.316;2023-08-21T08:01:06;28.80;99.90
20815;DHT22;10568;48.176;16.316;2023-08-21T08:03:31;29.10;99.90
20815;DHT22;10568;48.176;16.316;2023-08-21T08:05:58;29.30;99.90
20815;DHT22;10568;48.176;16.316;2023-08-21T08:08:23;29.30;99.90
20815;DHT22;10568;48.176;16.316;2023-08-21T08:10:49;29.30;99.90
20815;DHT22;10568;48.176;16.316;2023-08-21T08:13:15;29.60;99.90
20815;DHT22;10568;48.176;16.316;2023-08-21T08:15:41;29.80;99.90
20815;DHT22;10568;48.176;16.316;2023-08-21T08:18:14;29.90;99.90
20815;DHT22;10568;48.176;16.316;2023-08-21T08:20:40;30.10;99.90
20815;DHT22;10568;48.176;16.316;2023-08-21T08:23:06;30.40;99.90
20815;DHT22;10568;48.176;16.316;2023-08-21T08:25:32;30.80;99.90
20815;DHT22;10568;48.176;16.316;2023-08-21T08:27:58;30.90;99.90
20815;DHT22;10568;48.176;16.316;2023-08-21T08:30:24;30.90;99.90
20815;DHT22;10568;48.176;16.316;2023-08-21T08:32:50;31.30;99.90
20815;DHT22;10568;48.176;16.316;2023-08-21T08:35:16;31.60;99.90
20815;DHT22;10568;48.176;16.316;2023-08-21T08:37:42;31.80;99.90
20815;DHT22;10568;48.176;16.316;2023-08-21T08:40:09;31.80;99.90
20815;DHT22;10568;48.176;16.316;2023-08-21T08:42:35;31.70;99.90
20815;DHT22;10568;48.176;16.316;2023-08-21T08:45:04;31.80;99.90
20815;DHT22;10568;48.176;16.316;2023-08-21T08:47:34;32.20;99.90
20815;DHT22;10568;48.176;16.316;2023-08-21T08:50:05;32.30;99.90
20815;DHT22;10568;48.176;16.316;2023-08-21T08:52:35;32.70;99.90
20815;DHT22;10568;48.176;16.316;2023-08-21T08:55:02;33.00;99.90
20815;DHT22;10568;48.176;16.316;2023-08-21T08:57:32;33.20;99.90
20815;DHT22;10568;48.176;16.316;2023-08-21T09:00:05;33.20;99.90
20815;DHT22;10568;48.176;16.316;2023-08-21T09:02:31;33.20;99.90
20815;DHT22;10568;48.176;16.316;2023-08-21T09:04:56;33.40;99.90
20815;DHT22;10568;48.176;16.316;2023-08-21T09:07:24;33.40;99.90
20815;DHT22;10568;48.176;16.316;2023-08-21T09:09:50;33.30;99.90
20815;DHT22;10568;48.176;16.316;2023-08-21T09:12:18;33.30;99.90
20815;DHT22;10568;48.176;16.316;2023-08-21T09:14:45;33.40;99.90
20815;DHT22;10568;48.176;16.316;2023-08-21T09:17:11;33.80;99.90
20815;DHT22;10568;48.176;16.316;2023-08-21T09:19:37;33.80;99.90
20815;DHT22;10568;48.176;16.316;2023-08-21T09:22:16;34.30;99.90
20815;DHT22;10568;48.176;16.316;2023-08-21T09:25:06;34.30;99.90
20815;DHT22;10568;48.176;16.316;2023-08-21T09:27:34;34.50;99.90
20815;DHT22;10568;48.176;16.316;2023-08-21T09:30:01;34.50;99.90
20815;DHT22;10568;48.176;16.316;2023-08-21T09:32:29;34.50;99.90
20815;DHT22;10568;48.176;16.316;2023-08-21T09:34:55;34.50;99.90
20815;DHT22;10568;48.176;16.316;2023-08-21T09:37:21;34.80;99.90
20815;DHT22;10568;48.176;16.316;2023-08-21T09:39:46;34.70;99.90
20815;DHT22;10568;48.176;16.316;2023-08-21T09:42:14;34.80;99.90
20815;DHT22;10568;48.176;16.316;2023-08-21T09:44:40;35.00;99.90
20815;DHT22;10568;48.176;16.316;2023-08-21T09:47:12;35.30;99.90
20815;DHT22;10568;48.176;16.316;2023-08-21T09:49:38;35.50;99.90
20815;DHT22;10568;48.176;16.316;2023-08-21T09:52:08;35.60;99.90
20815;DHT22;10568;48.176;16.316;2023-08-21T09:54:38;35.80;99.90
20815;DHT22;10568;48.176;16.316;2023-08-21T09:57:04;35.80;99.90
20815;DHT22;10568;48.176;16.316;2023-08-21T09:59:31;35.70;99.90
20815;DHT22;10568;48.176;16.316;2023-08-21T10:01:59;36.00;99.90
20815;DHT22;10568;48.176;16.316;2023-08-21T10:04:28;35.90;99.90
20815;DHT22;10568;48.176;16.316;2023-08-21T10:06:56;36.30;99.90
20815;DHT22;10568;48.176;16.316;2023-08-21T10:09:23;36.50;99.90
20815;DHT22;10568;48.176;16.316;2023-08-21T10:11:49;36.60;99.90
20815;DHT22;10568;48.176;16.316;2023-08-21T10:14:16;36.40;99.20
20815;DHT22;10568;48.176;16.316;2023-08-21T10:16:42;36.50;99.90
20815;DHT22;10568;48.176;16.316;2023-08-21T10:19:07;36.70;99.90
20815;DHT22;10568;48.176;16.316;2023-08-21T10:21:36;37.00;98.30
20815;DHT22;10568;48.176;16.316;2023-08-21T10:24:12;36.80;99.90
20815;DHT22;10568;48.176;16.316;2023-08-21T10:26:38;36.90;99.90
20815;DHT22;10568;48.176;16.316;2023-08-21T10:29:07;37.00;99.90
20815;DHT22;10568;48.176;16.316;2023-08-21T10:31:39;37.20;99.90
20815;DHT22;10568;48.176;16.316;2023-08-21T10:34:12;37.20;97.00
20815;DHT22;10568;48.176;16.316;2023-08-21T10:39:26;37.70;98.50
20815;DHT22;10568;48.176;16.316;2023-08-21T10:41:55;37.40;95.80
20815;DHT22;10568;48.176;16.316;2023-08-21T10:47:22;37.80;94.70
20815;DHT22;10568;48.176;16.316;2023-08-21T10:49:51;37.60;95.30
20815;DHT22;10568;48.176;16.316;2023-08-21T10:52:24;37.90;95.50
20815;DHT22;10568;48.176;16.316;2023-08-21T10:54:53;38.10;97.60
20815;DHT22;10568;48.176;16.316;2023-08-21T10:57:19;38.20;93.60
20815;DHT22;10568;48.176;16.316;2023-08-21T11:02:25;38.10;97.20
20815;DHT22;10568;48.176;16.316;2023-08-21T11:04:51;38.40;95.40
20815;DHT22;10568;48.176;16.316;2023-08-21T11:07:18;38.30;96.20
20815;DHT22;10568;48.176;16.316;2023-08-21T11:09:44;38.50;94.20
20815;DHT22;10568;48.176;16.316;2023-08-21T11:12:12;38.80;97.60
20815;DHT22;10568;48.176;16.316;2023-08-21T11:14:39;38.80;94.80
20815;DHT22;10568;48.176;16.316;2023-08-21T11:17:08;38.80;95.30
20815;DHT22;10568;48.176;16.316;2023-08-21T11:19:34;39.10;97.20
20815;DHT22;10568;48.176;16.316;2023-08-21T11:22:01;39.30;97.20
20815;DHT22;10568;48.176;16.316;2023-08-21T11:24:50;39.40;90.90
20815;DHT22;10568;48.176;16.316;2023-08-21T11:27:28;39.50;92.70
20815;DHT22;10568;48.176;16.316;2023-08-21T11:29:54;39.40;92.90
20815;DHT22;10568;48.176;16.316;2023-08-21T11:32:21;39.50;97.20
20815;DHT22;10568;48.176;16.316;2023-08-21T11:34:51;39.70;90.80
20815;DHT22;10568;48.176;16.316;2023-08-21T11:37:18;39.40;88.40
20815;DHT22;10568;48.176;16.316;2023-08-21T11:39:55;39.50;93.20
20815;DHT22;10568;48.176;16.316;2023-08-21T11:42:30;39.60;89.40
20815;DHT22;10568;48.176;16.316;2023-08-21T11:44:56;39.30;91.50
20815;DHT22;10568;48.176;16.316;2023-08-21T11:47:23;39.30;91.20
20815;DHT22;10568;48.176;16.316;2023-08-21T11:50:05;39.30;86.60
20815;DHT22;10568;48.176;16.316;2023-08-21T11:52:32;39.20;82.80
20815;DHT22;10568;48.176;16.316;2023-08-21T11:54:58;39.00;86.80
20815;DHT22;10568;48.176;16.316;2023-08-21T11:57:24;39.20;89.60
20815;DHT22;10568;48.176;16.316;2023-08-21T11:59:54;39.00;83.60
20815;DHT22;10568;48.176;16.316;2023-08-21T12:02:24;39.00;88.30
20815;DHT22;10568;48.176;16.316;2023-08-21T12:05:14;39.00;82.40
20815;DHT22;10568;48.176;16.316;2023-08-21T12:07:40;39.10;83.20
20815;DHT22;10568;48.176;16.316;2023-08-21T12:10:06;39.20;87.80
20815;DHT22;10568;48.176;16.316;2023-08-21T12:12:32;39.10;88.10
20815;DHT22;10568;48.176;16.316;2023-08-21T12:14:58;39.30;90.50
20815;DHT22;10568;48.176;16.316;2023-08-21T12:17:24;39.60;88.20
20815;DHT22;10568;48.176;16.316;2023-08-21T12:19:50;39.70;87.80
20815;DHT22;10568;48.176;16.316;2023-08-21T12:22:16;39.60;84.30
20815;DHT22;10568;48.176;16.316;2023-08-21T12:24:42;39.50;85.20
20815;DHT22;10568;48.176;16.316;2023-08-21T12:27:08;39.70;89.90
20815;DHT22;10568;48.176;16.316;2023-08-21T12:29:34;39.90;87.60
20815;DHT22;10568;48.176;16.316;2023-08-21T12:32:00;40.00;83.00
20815;DHT22;10568;48.176;16.316;2023-08-21T12:34:26;39.70;86.20
20815;DHT22;10568;48.176;16.316;2023-08-21T12:36:52;39.60;89.60
20815;DHT22;10568;48.176;16.316;2023-08-21T12:39:18;39.60;91.60
20815;DHT22;10568;48.176;16.316;2023-08-21T12:41:44;39.90;81.00
20815;DHT22;10568;48.176;16.316;2023-08-21T12:44:10;40.00;89.50
20815;DHT22;10568;48.176;16.316;2023-08-21T12:46:38;40.00;85.60
20815;DHT22;10568;48.176;16.316;2023-08-21T12:49:04;40.20;79.30
20815;DHT22;10568;48.176;16.316;2023-08-21T12:51:30;40.00;83.70
20815;DHT22;10568;48.176;16.316;2023-08-21T12:53:56;39.90;77.30
20815;DHT22;10568;48.176;16.316;2023-08-21T12:56:22;39.70;80.10
20815;DHT22;10568;48.176;16.316;2023-08-21T12:58:48;40.10;80.40
20815;DHT22;10568;48.176;16.316;2023-08-21T13:01:14;40.10;80.30
20815;DHT22;10568;48.176;16.316;2023-08-21T13:03:44;40.30;83.50
20815;DHT22;10568;48.176;16.316;2023-08-21T13:06:12;40.20;82.80
20815;DHT22;10568;48.176;16.316;2023-08-21T13:08:37;40.00;86.90
20815;DHT22;10568;48.176;16.316;2023-08-21T13:11:03;40.20;78.00
20815;DHT22;10568;48.176;16.316;2023-08-21T13:13:31;40.00;76.40
20815;DHT22;10568;48.176;16.316;2023-08-21T13:15:56;40.10;82.10
20815;DHT22;10568;48.176;16.316;2023-08-21T13:18:22;40.20;81.20
20815;DHT22;10568;48.176;16.316;2023-08-21T13:20:48;40.30;85.70
20815;DHT22;10568;48.176;16.316;2023-08-21T13:23:14;40.40;78.50
20815;DHT22;10568;48.176;16.316;2023-08-21T13:25:40;40.10;81.00
20815;DHT22;10568;48.176;16.316;2023-08-21T13:28:06;40.10;75.20
20815;DHT22;10568;48.176;16.316;2023-08-21T13:30:32;40.20;84.60
20815;DHT22;10568;48.176;16.316;2023-08-21T13:32:58;40.20;77.50
20815;DHT22;10568;48.176;16.316;2023-08-21T13:35:24;40.40;77.40
20815;DHT22;10568;48.176;16.316;2023-08-21T13:37:50;40.20;80.80
20815;DHT22;10568;48.176;16.316;2023-08-21T13:40:16;40.20;83.50
20815;DHT22;10568;48.176;16.316;2023-08-21T13:42:47;40.20;78.90
20815;DHT22;10568;48.176;16.316;2023-08-21T13:45:16;40.00;76.70
20815;DHT22;10568;48.176;16.316;2023-08-21T13:47:46;39.90;74.80
20815;DHT22;10568;48.176;16.316;2023-08-21T13:50:16;40.00;77.40
20815;DHT22;10568;48.176;16.316;2023-08-21T13:52:43;40.10;82.40
20815;DHT22;10568;48.176;16.316;2023-08-21T13:55:10;39.90;79.20
20815;DHT22;10568;48.176;16.316;2023-08-21T13:57:36;39.90;73.30
20815;DHT22;10568;48.176;16.316;2023-08-21T14:00:05;39.90;76.90
20815;DHT22;10568;48.176;16.316;2023-08-21T14:02:55;39.80;75.40
20815;DHT22;10568;48.176;16.316;2023-08-21T14:05:21;39.90;75.10
20815;DHT22;10568;48.176;16.316;2023-08-21T14:07:46;39.70;74.10
20815;DHT22;10568;48.176;16.316;2023-08-21T14:10:12;39.60;68.70
20815;DHT22;10568;48.176;16.316;2023-08-21T14:12:40;39.60;74.40
20815;DHT22;10568;48.176;16.316;2023-08-21T14:15:06;39.20;76.90
20815;DHT22;10568;48.176;16.316;2023-08-21T14:17:32;39.20;78.80
20815;DHT22;10568;48.176;16.316;2023-08-21T14:19:58;39.30;77.00
20815;DHT22;10568;48.176;16.316;2023-08-21T14:22:24;39.30;76.00
20815;DHT22;10568;48.176;16.316;2023-08-21T14:24:50;39.30;76.10
20815;DHT22;10568;48.176;16.316;2023-08-21T14:27:16;39.30;76.90
20815;DHT22;10568;48.176;16.316;2023-08-21T14:29:45;39.30;70.30
20815;DHT22;10568;48.176;16.316;2023-08-21T14:32:11;39.10;69.10
20815;DHT22;10568;48.176;16.316;2023-08-21T14:34:37;39.00;74.80
20815;DHT22;10568;48.176;16.316;2023-08-21T14:37:03;38.90;70.60
20815;DHT22;10568;48.176;16.316;2023-08-21T14:39:31;38.70;72.70
20815;DHT22;10568;48.176;16.316;2023-08-21T14:41:59;38.30;70.60
20815;DHT22;10568;48.176;16.316;2023-08-21T14:44:25;37.80;75.20
20815;DHT22;10568;48.176;16.316;2023-08-21T14:46:54;37.60;72.20
20815;DHT22;10568;48.176;16.316;2023-08-21T14:49:21;37.20;73.70
20815;DHT22;10568;48.176;16.316;2023-08-21T14:51:48;36.90;76.60
20815;DHT22;10568;48.176;16.316;2023-08-21T14:54:13;36.60;75.00
20815;DHT22;10568;48.176;16.316;2023-08-21T14:56:39;36.30;74.70
20815;DHT22;10568;48.176;16.316;2023-08-21T14:59:05;35.90;79.80
20815;DHT22;10568;48.176;16.316;2023-08-21T15:01:31;35.60;73.50
20815;DHT22;10568;48.176;16.316;2023-08-21T15:03:57;35.30;74.80
20815;DHT22;10568;48.176;16.316;2023-08-21T15:06:23;35.00;73.80
20815;DHT22;10568;48.176;16.316;2023-08-21T15:08:48;34.90;78.70
20815;DHT22;10568;48.176;16.316;2023-08-21T15:11:14;34.60;78.20
20815;DHT22;10568;48.176;16.316;2023-08-21T15:13:40;34.50;80.90
20815;DHT22;10568;48.176;16.316;2023-08-21T15:16:06;34.30;88.00
20815;DHT22;10568;48.176;16.316;2023-08-21T15:18:32;34.10;81.70
20815;DHT22;10568;48.176;16.316;2023-08-21T15:20:58;33.90;82.40
20815;DHT22;10568;48.176;16.316;2023-08-21T15:23:25;33.80;83.10
20815;DHT22;10568;48.176;16.316;2023-08-21T15:25:51;33.60;78.10
20815;DHT22;10568;48.176;16.316;2023-08-21T15:28:17;33.50;81.50